createdAt,value
2022-12-25T00:01:47.133Z,101284.84
2022-12-25T00:05:48.983Z,101278.41
2022-12-25T00:09:50.763Z,101279.09
2022-12-25T00:13:52.496Z,101289.63
2022-12-25T00:17:54.327Z,101270.69
2022-12-25T00:21:56.176Z,101264.44
2022-12-25T00:25:58.422Z,101269.47
2022-12-25T00:30:01.103Z,101265.56
2022-12-25T00:34:03.737Z,101267.91
2022-12-25T00:38:05.979Z,101279.13
2022-12-25T00:42:19.815Z,101264.56
2022-12-25T00:46:21.692Z,101267.94
2022-12-25T00:50:23.606Z,101277.47
2022-12-25T00:54:25.314Z,101276.22
2022-12-25T00:58:29.656Z,101286.84
2022-12-25T01:02:31.665Z,101292.84
2022-12-25T01:06:33.893Z,101296.25
2022-12-25T01:10:35.803Z,101296.91
2022-12-25T01:14:37.540Z,101290.66
2022-12-25T01:18:39.304Z,101289.81
2022-12-25T01:22:41.329Z,101287.25
2022-12-25T01:26:43.060Z,101280.53
2022-12-25T01:30:49.633Z,101264.72
2022-12-25T01:34:55.861Z,101270.88
2022-12-25T01:38:58.253Z,101263.16
2022-12-25T01:42:59.977Z,101288.38
2022-12-25T01:47:05.628Z,101286.72
2022-12-25T01:51:17.670Z,101279.69
2022-12-25T01:55:19.871Z,101278.28
2022-12-25T01:59:23.758Z,101281.22
2022-12-25T02:03:25.622Z,101279.69
2022-12-25T02:07:29.697Z,101288.63
2022-12-25T02:11:49.986Z,101285.84
2022-12-25T02:15:51.672Z,101280.25
2022-12-25T02:20:02.749Z,101272.69
2022-12-25T02:24:23.903Z,101262.47
2022-12-25T02:28:32.715Z,101263.72
2022-12-25T02:32:43.175Z,101265.13
2022-12-25T02:36:51.235Z,101259.66
2022-12-25T02:40:59.915Z,101248.06
2022-12-25T02:45:20.909Z,101246.09
2022-12-25T02:49:43.244Z,101237.16
2022-12-25T02:54:05.982Z,101219.19
2022-12-25T02:58:31.402Z,101213.72
2022-12-25T03:02:53.359Z,101210.22
2022-12-25T03:07:10.643Z,101203.78
2022-12-25T03:11:31.625Z,101204.63
2022-12-25T03:15:53.592Z,101204.63
2022-12-25T03:20:14.085Z,101215.16
2022-12-25T03:24:54.479Z,101216.09
2022-12-25T03:28:56.250Z,101216.94
2022-12-25T03:33:44.730Z,101221.97
2022-12-25T03:38:28.384Z,101217.38
2022-12-25T03:42:57.983Z,101221.72
2022-12-25T03:47:21.613Z,101204.63
2022-12-25T03:51:48.373Z,101207.00
2022-12-25T03:56:11.306Z,101205.84
2022-12-25T04:00:32.083Z,101204.88
2022-12-25T04:04:52.498Z,101204.72
2022-12-25T04:09:12.887Z,101216.94
2022-12-25T04:13:34.624Z,101222.94
2022-12-25T04:17:54.953Z,101216.50
2022-12-25T04:22:15.350Z,101210.03
2022-12-25T04:26:35.653Z,101202.06
2022-12-25T04:30:56.124Z,101209.34
2022-12-25T04:35:18.236Z,101209.63
2022-12-25T04:39:19.975Z,101191.25
2022-12-25T04:43:25.186Z,101195.91
2022-12-25T04:47:27.084Z,101197.84
2022-12-25T04:51:28.760Z,101205.16
2022-12-25T04:55:30.547Z,101192.13
2022-12-25T04:59:32.538Z,101178.09
2022-12-25T05:03:34.648Z,101175.44
2022-12-25T05:07:36.490Z,101174.50
2022-12-25T05:11:38.207Z,101171.13
2022-12-25T05:15:40.944Z,101175.75
2022-12-25T05:19:43.246Z,101168.72
2022-12-25T05:23:51.429Z,101173.38
2022-12-25T05:27:54.102Z,101180.38
2022-12-25T05:31:56.083Z,101170.72
2022-12-25T05:35:57.865Z,101164.56
2022-12-25T05:39:59.601Z,101165.41
2022-12-25T05:44:01.529Z,101166.22
2022-12-25T05:48:03.385Z,101174.34
2022-12-25T05:52:05.123Z,101172.53
2022-12-25T05:56:08.376Z,101165.25
2022-12-25T06:00:10.655Z,101147.44
2022-12-25T06:04:15.174Z,101142.09
2022-12-25T06:08:17.094Z,101142.09
2022-12-25T06:12:18.879Z,101137.63
2022-12-25T06:16:20.776Z,101130.34
2022-12-25T06:20:22.674Z,101127.53
2022-12-25T06:24:24.491Z,101131.88
2022-12-25T06:28:26.262Z,101122.91
2022-12-25T06:32:27.950Z,101118.25
2022-12-25T06:36:29.701Z,101128.91
2022-12-25T06:40:31.541Z,101119.78
2022-12-25T06:44:33.838Z,101107.31
2022-12-25T06:48:37.312Z,101120.50
2022-12-25T06:52:39.111Z,101130.31
2022-12-25T06:56:41.411Z,101117.84
2022-12-25T07:00:43.191Z,101105.38
2022-12-25T07:04:45.940Z,101101.72
2022-12-25T07:08:47.738Z,101103.69
2022-12-25T07:12:49.471Z,101111.53
2022-12-25T07:16:52.054Z,101096.38
2022-12-25T07:20:55.843Z,101107.88
2022-12-25T07:24:57.624Z,101110.41
2022-12-25T07:28:59.361Z,101109.41
2022-12-25T07:33:01.393Z,101125.38
2022-12-25T07:37:03.284Z,101128.03
2022-12-25T07:41:08.714Z,101132.38
2022-12-25T07:45:11.018Z,101126.06
2022-12-25T07:49:12.941Z,101121.59
2022-12-25T07:53:14.689Z,101123.41
2022-12-25T07:57:16.534Z,101114.44
2022-12-25T08:01:27.108Z,101148.06
2022-12-25T08:05:28.984Z,101147.09
2022-12-25T08:09:30.790Z,101150.56
2022-12-25T08:13:33.869Z,101146.13
2022-12-25T08:17:35.672Z,101153.13
2022-12-25T08:21:38.290Z,101148.47
2022-12-25T08:25:39.994Z,101145.81
2022-12-25T08:29:44.731Z,101139.50
2022-12-25T08:33:47.309Z,101135.84
2022-12-25T08:37:49.201Z,101125.19
2022-12-25T08:41:50.961Z,101128.53
2022-12-25T08:45:52.838Z,101132.91
2022-12-25T08:49:54.561Z,101147.91
2022-12-25T08:53:59.865Z,101132.75
2022-12-25T08:58:03.031Z,101127.28
2022-12-25T09:02:05.197Z,101139.75
2022-12-25T09:06:12.349Z,101143.28
2022-12-25T09:10:14.112Z,101159.38
2022-12-25T09:14:15.912Z,101166.53
2022-12-25T09:18:17.635Z,101159.38
2022-12-25T09:22:19.578Z,101162.22
2022-12-25T09:26:21.308Z,101164.03
2022-12-25T09:30:23.569Z,101157.72
2022-12-25T09:34:25.319Z,101160.50
2022-12-25T09:38:27.822Z,101145.50
2022-12-25T09:42:31.919Z,101153.50
2022-12-25T09:46:45.297Z,101141.84
2022-12-25T09:50:50.853Z,101146.22
2022-12-25T09:55:19.580Z,101134.84
2022-12-25T09:59:26.252Z,101131.19
2022-12-25T10:03:59.652Z,101142.56
2022-12-25T10:08:07.706Z,101136.41
2022-12-25T10:12:27.285Z,101122.91
2022-12-25T10:16:37.076Z,101144.22
2022-12-25T10:20:58.035Z,101127.28
2022-12-25T10:25:02.746Z,101120.25
2022-12-25T10:29:13.840Z,101105.28
2022-12-25T10:33:17.433Z,101101.63
2022-12-25T10:37:19.599Z,101090.13
2022-12-25T10:41:30.478Z,101093.63
2022-12-25T10:45:43.339Z,101083.97
2022-12-25T10:49:45.156Z,101083.13
2022-12-25T10:53:46.955Z,101069.81
2022-12-25T10:57:48.771Z,101056.50
2022-12-25T11:01:55.046Z,101063.66
2022-12-25T11:05:57.996Z,101044.16
2022-12-25T11:10:18.718Z,101036.00
2022-12-25T11:14:22.835Z,101035.72
2022-12-25T11:18:27.289Z,101018.59
2022-12-25T11:22:29.505Z,101008.47
2022-12-25T11:26:45.785Z,101010.81
2022-12-25T11:30:53.441Z,101014.88
2022-12-25T11:34:56.589Z,101008.56
2022-12-25T11:39:28.323Z,100995.25
2022-12-25T11:43:40.345Z,101001.41
2022-12-25T11:47:55.938Z,100981.91
2022-12-25T11:51:58.288Z,100988.53
2022-12-25T11:56:08.247Z,100986.00
2022-12-25T12:00:14.811Z,100971.16
2022-12-25T12:04:30.872Z,100956.34
2022-12-25T12:08:36.305Z,100938.69
2022-12-25T12:12:56.161Z,100938.81
2022-12-25T12:16:58.124Z,100942.19
2022-12-25T12:20:59.864Z,100957.16
2022-12-25T12:25:06.906Z,100948.19
2022-12-25T12:29:23.769Z,100947.19
2022-12-25T12:33:30.857Z,100961.38
2022-12-25T12:37:36.355Z,100944.50
2022-12-25T12:41:49.144Z,100928.53
2022-12-25T12:45:58.035Z,100933.84
2022-12-25T12:50:01.555Z,100928.41
2022-12-25T12:54:17.289Z,100907.22
2022-12-25T12:58:51.193Z,100899.22
2022-12-25T13:03:26.053Z,100891.22
2022-12-25T13:07:44.395Z,100869.91
2022-12-25T13:11:46.406Z,100865.47
2022-12-25T13:15:50.485Z,100877.78
2022-12-25T13:19:56.410Z,100878.59
2022-12-25T13:24:10.672Z,100886.59
2022-12-25T13:28:14.589Z,100894.59
2022-12-25T13:32:26.296Z,100885.91
2022-12-25T13:36:30.613Z,100888.72
2022-12-25T13:40:32.945Z,100888.91
2022-12-25T13:45:06.477Z,100882.88
2022-12-25T13:49:15.210Z,100885.53
2022-12-25T13:53:18.298Z,100881.22
2022-12-25T13:57:22.178Z,100881.22
2022-12-25T14:01:24.263Z,100892.88
2022-12-25T14:05:28.058Z,100891.88
2022-12-25T14:09:30.373Z,100878.00
2022-12-25T14:13:37.018Z,100886.13
2022-12-25T14:17:38.853Z,100884.34
2022-12-25T14:21:49.327Z,100883.66
2022-12-25T14:25:51.513Z,100880.16
2022-12-25T14:29:56.321Z,100858.00
2022-12-25T14:34:03.235Z,100842.84
2022-12-25T14:38:06.223Z,100852.50
2022-12-25T14:42:20.663Z,100862.16
2022-12-25T14:46:25.172Z,100866.81
2022-12-25T14:50:28.957Z,100863.47
2022-12-25T14:54:30.711Z,100866.13
2022-12-25T14:58:40.374Z,100864.47
2022-12-25T15:02:45.839Z,100875.13
2022-12-25T15:06:57.671Z,100884.09
2022-12-25T15:11:02.337Z,100884.25
2022-12-25T15:15:05.215Z,100881.75
2022-12-25T15:19:09.811Z,100871.09
2022-12-25T15:23:20.231Z,100870.09
2022-12-25T15:27:22.384Z,100864.75
2022-12-25T15:31:27.180Z,100859.44
2022-12-25T15:35:29.580Z,100856.78
2022-12-25T15:39:31.413Z,100868.44
2022-12-25T15:43:41.295Z,100865.75
2022-12-25T15:47:43.451Z,100860.44
2022-12-25T15:51:45.837Z,100852.44
2022-12-25T15:55:47.630Z,100852.44
2022-12-25T15:59:49.426Z,100852.44
2022-12-25T16:03:51.196Z,100838.28
2022-12-25T16:07:52.961Z,100827.47
2022-12-25T16:11:54.675Z,100826.50
2022-12-25T16:15:56.483Z,100830.84
2022-12-25T16:19:58.295Z,100825.50
2022-12-25T16:23:59.982Z,100822.03
2022-12-25T16:28:03.720Z,100824.69
2022-12-25T16:32:05.484Z,100827.19
2022-12-25T16:36:07.631Z,100816.53
2022-12-25T16:40:10.369Z,100824.38
2022-12-25T16:44:12.231Z,100813.72
2022-12-25T16:48:14.030Z,100822.69
2022-12-25T16:52:15.814Z,100820.19
2022-12-25T16:56:20.689Z,100824.69
2022-12-25T17:00:22.583Z,100826.34
2022-12-25T17:04:25.354Z,100825.50
2022-12-25T17:08:27.343Z,100820.31
2022-12-25T17:12:29.075Z,100824.81
2022-12-25T17:16:36.323Z,100819.66
2022-12-25T17:20:38.292Z,100821.31
2022-12-25T17:24:41.608Z,100815.16
2022-12-25T17:28:43.453Z,100817.81
2022-12-25T17:32:45.218Z,100820.50
2022-12-25T17:36:47.641Z,100817.81
2022-12-25T17:40:56.581Z,100831.44
2022-12-25T17:44:58.297Z,100832.28
2022-12-25T17:49:01.380Z,100837.59
2022-12-25T17:53:05.312Z,100823.31
2022-12-25T17:57:07.177Z,100813.63
2022-12-25T18:01:15.483Z,100814.47
2022-12-25T18:05:17.372Z,100808.47
2022-12-25T18:09:19.872Z,100807.63
2022-12-25T18:13:22.033Z,100800.47
2022-12-25T18:17:23.828Z,100796.16
2022-12-25T18:21:26.352Z,100801.47
2022-12-25T18:25:28.747Z,100826.13
2022-12-25T18:29:30.481Z,100826.13
2022-12-25T18:33:32.156Z,100842.78
2022-12-25T18:37:39.886Z,100854.13
2022-12-25T18:42:00.795Z,100846.81
2022-12-25T18:46:04.234Z,100848.47
2022-12-25T18:50:07.761Z,100842.31
2022-12-25T18:54:10.784Z,100839.81
2022-12-25T18:58:12.522Z,100832.81
2022-12-25T19:02:15.550Z,100832.81
2022-12-25T19:06:23.380Z,100816.81
2022-12-25T19:10:25.076Z,100816.00
2022-12-25T19:14:28.456Z,100814.16
2022-12-25T19:18:30.535Z,100813.50
2022-12-25T19:22:32.706Z,100816.00
2022-12-25T19:26:36.040Z,100811.81
2022-12-25T19:30:38.505Z,100820.78
2022-12-25T19:34:40.241Z,100833.09
2022-12-25T19:38:43.616Z,100838.44
2022-12-25T19:42:45.343Z,100842.63
2022-12-25T19:46:47.098Z,100840.78
2022-12-25T19:50:49.186Z,100837.16
2022-12-25T19:54:52.563Z,100846.00
2022-12-25T19:58:55.271Z,100828.19
2022-12-25T20:02:57.234Z,100830.84
2022-12-25T20:06:59.093Z,100843.47
2022-12-25T20:11:02.810Z,100847.13
2022-12-25T20:15:04.881Z,100836.47
2022-12-25T20:19:07.415Z,100840.78
2022-12-25T20:23:09.615Z,100832.81
2022-12-25T20:27:11.396Z,100833.63
2022-12-25T20:31:20.916Z,100827.47
2022-12-25T20:35:22.793Z,100834.50
2022-12-25T20:39:24.556Z,100838.97
2022-12-25T20:43:26.926Z,100836.16
2022-12-25T20:47:28.677Z,100835.16
2022-12-25T20:51:30.616Z,100827.19
2022-12-25T20:55:32.716Z,100833.34
2022-12-25T20:59:37.649Z,100853.69
2022-12-25T21:03:40.804Z,100852.69
2022-12-25T21:07:42.630Z,100853.50
2022-12-25T21:11:44.408Z,100858.53
2022-12-25T21:15:47.659Z,100860.19
2022-12-25T21:19:49.374Z,100861.88
2022-12-25T21:23:51.368Z,100863.56
2022-12-25T21:27:53.098Z,100865.22
2022-12-25T21:32:13.625Z,100875.72
2022-12-25T21:36:15.488Z,100878.53
2022-12-25T21:40:17.281Z,100882.03
2022-12-25T21:44:19.099Z,100875.06
2022-12-25T21:48:20.918Z,100881.22
2022-12-25T21:52:22.647Z,100875.19
2022-12-25T21:56:25.675Z,100871.84
2022-12-25T22:00:27.791Z,100866.66
2022-12-25T22:04:29.628Z,100866.66
2022-12-25T22:08:32.798Z,100863.34
2022-12-25T22:12:52.951Z,100852.69
2022-12-25T22:17:13.348Z,100864.47
2022-12-25T22:21:22.739Z,100874.28
2022-12-25T22:25:25.404Z,100875.13
2022-12-25T22:29:27.354Z,100861.81
2022-12-25T22:33:30.051Z,100854.66
2022-12-25T22:37:31.876Z,100845.69
2022-12-25T22:41:33.932Z,100858.13
2022-12-25T22:45:35.706Z,100844.53
2022-12-25T22:49:37.589Z,100855.19
2022-12-25T22:53:39.340Z,100849.84
2022-12-25T22:57:41.036Z,100858.66
2022-12-25T23:01:43.225Z,100864.84
2022-12-25T23:05:44.977Z,100842.69
2022-12-25T23:09:46.855Z,100846.19
2022-12-25T23:14:07.489Z,100846.88
2022-12-25T23:18:28.133Z,100835.41
2022-12-25T23:22:48.460Z,100840.56
2022-12-25T23:26:50.214Z,100848.53
2022-12-25T23:30:51.938Z,100858.38
2022-12-25T23:34:55.262Z,100858.22
2022-12-25T23:39:01.608Z,100863.56
2022-12-25T23:43:07.618Z,100877.53
2022-12-25T23:47:09.388Z,100877.53
2022-12-25T23:51:11.227Z,100878.38
2022-12-25T23:55:13.001Z,100890.72
2022-12-25T23:59:15.437Z,100896.19
